sensor_id;sensor_type;location;lat;lon;timestamp;temperature;humidity
15386;DHT22;7791;47.246;9.648;2022-07-29T00:01:22;16.90;99.90
15386;DHT22;7791;47.246;9.648;2022-07-29T00:03:48;17.00;99.90
15386;DHT22;7791;47.246;9.648;2022-07-29T00:06:15;17.00;99.90
15386;DHT22;7791;47.246;9.648;2022-07-29T00:08:41;17.10;99.90
15386;DHT22;7791;47.246;9.648;2022-07-29T00:11:07;17.10;99.90
15386;DHT22;7791;47.246;9.648;2022-07-29T00:13:51;17.20;99.90
15386;DHT22;7791;47.246;9.648;2022-07-29T00:16:17;17.20;99.90
15386;DHT22;7791;47.246;9.648;2022-07-29T00:18:43;17.20;99.90
15386;DHT22;7791;47.246;9.648;2022-07-29T00:21:09;17.30;99.90
15386;DHT22;7791;47.246;9.648;2022-07-29T00:23:36;17.30;99.90
15386;DHT22;7791;47.246;9.648;2022-07-29T00:26:02;17.30;99.90
15386;DHT22;7791;47.246;9.648;2022-07-29T00:28:28;17.30;99.90
15386;DHT22;7791;47.246;9.648;2022-07-29T00:30:54;17.30;99.90
15386;DHT22;7791;47.246;9.648;2022-07-29T00:33:20;17.40;99.90
15386;DHT22;7791;47.246;9.648;2022-07-29T00:35:46;17.30;99.90
15386;DHT22;7791;47.246;9.648;2022-07-29T00:38:14;17.30;99.90
15386;DHT22;7791;47.246;9.648;2022-07-29T00:40:43;17.10;99.90
15386;DHT22;7791;47.246;9.648;2022-07-29T00:46:34;17.00;99.90
15386;DHT22;7791;47.246;9.648;2022-07-29T00:49:00;17.00;99.90
15386;DHT22;7791;47.246;9.648;2022-07-29T00:51:27;17.00;99.90
15386;DHT22;7791;47.246;9.648;2022-07-29T00:53:53;16.90;99.90
15386;DHT22;7791;47.246;9.648;2022-07-29T00:56:20;16.80;99.90
15386;DHT22;7791;47.246;9.648;2022-07-29T00:58:51;16.70;99.90
15386;DHT22;7791;47.246;9.648;2022-07-29T01:01:18;16.70;99.90
15386;DHT22;7791;47.246;9.648;2022-07-29T01:03:44;16.60;99.90
15386;DHT22;7791;47.246;9.648;2022-07-29T01:06:10;16.60;99.90
15386;DHT22;7791;47.246;9.648;2022-07-29T01:08:37;16.50;99.90
15386;DHT22;7791;47.246;9.648;2022-07-29T01:11:03;16.40;99.90
15386;DHT22;7791;47.246;9.648;2022-07-29T01:14:01;16.30;99.90
15386;DHT22;7791;47.246;9.648;2022-07-29T01:16:31;16.30;99.90
15386;DHT22;7791;47.246;9.648;2022-07-29T01:19:04;16.10;99.90
15386;DHT22;7791;47.246;9.648;2022-07-29T01:21:49;16.00;99.90
15386;DHT22;7791;47.246;9.648;2022-07-29T01:24:32;16.00;99.90
15386;DHT22;7791;47.246;9.648;2022-07-29T01:27:04;15.80;99.90
15386;DHT22;7791;47.246;9.648;2022-07-29T01:29:57;15.80;99.90
15386;DHT22;7791;47.246;9.648;2022-07-29T01:32:26;15.80;99.90
15386;DHT22;7791;47.246;9.648;2022-07-29T01:34:55;15.70;99.90
15386;DHT22;7791;47.246;9.648;2022-07-29T01:37:27;15.70;99.90
15386;DHT22;7791;47.246;9.648;2022-07-29T01:39:56;15.70;99.90
15386;DHT22;7791;47.246;9.648;2022-07-29T01:42:27;15.60;99.90
15386;DHT22;7791;47.246;9.648;2022-07-29T01:45:21;15.50;99.90
15386;DHT22;7791;47.246;9.648;2022-07-29T01:47:56;15.50;99.90
15386;DHT22;7791;47.246;9.648;2022-07-29T01:50:28;15.50;99.90
15386;DHT22;7791;47.246;9.648;2022-07-29T01:52:58;15.60;99.90
15386;DHT22;7791;47.246;9.648;2022-07-29T01:55:28;15.60;99.90
15386;DHT22;7791;47.246;9.648;2022-07-29T01:57:56;15.60;99.90
15386;DHT22;7791;47.246;9.648;2022-07-29T02:00:27;15.50;99.90
15386;DHT22;7791;47.246;9.648;2022-07-29T02:02:56;15.40;99.90
15386;DHT22;7791;47.246;9.648;2022-07-29T02:05:24;15.30;99.90
15386;DHT22;7791;47.246;9.648;2022-07-29T02:07:53;15.30;99.90
15386;DHT22;7791;47.246;9.648;2022-07-29T02:10:22;15.40;99.90
15386;DHT22;7791;47.246;9.648;2022-07-29T02:12:50;15.40;99.90
15386;DHT22;7791;47.246;9.648;2022-07-29T02:15:33;15.40;99.90
15386;DHT22;7791;47.246;9.648;2022-07-29T02:18:02;15.40;99.90
15386;DHT22;7791;47.246;9.648;2022-07-29T02:20:28;15.40;99.90
15386;DHT22;7791;47.246;9.648;2022-07-29T02:22:55;15.40;99.90
15386;DHT22;7791;47.246;9.648;2022-07-29T02:25:23;15.40;99.90
15386;DHT22;7791;47.246;9.648;2022-07-29T02:27:50;15.40;99.90
15386;DHT22;7791;47.246;9.648;2022-07-29T02:33:24;15.30;99.90
15386;DHT22;7791;47.246;9.648;2022-07-29T02:35:50;15.20;99.90
15386;DHT22;7791;47.246;9.648;2022-07-29T02:38:18;15.20;99.90
15386;DHT22;7791;47.246;9.648;2022-07-29T02:40:45;15.20;99.90
15386;DHT22;7791;47.246;9.648;2022-07-29T02:43:12;15.10;99.90
15386;DHT22;7791;47.246;9.648;2022-07-29T02:45:40;15.10;99.90
15386;DHT22;7791;47.246;9.648;2022-07-29T02:48:09;15.10;99.90
15386;DHT22;7791;47.246;9.648;2022-07-29T02:50:41;14.90;99.90
15386;DHT22;7791;47.246;9.648;2022-07-29T02:53:14;14.90;99.90
15386;DHT22;7791;47.246;9.648;2022-07-29T02:55:43;15.00;99.90
15386;DHT22;7791;47.246;9.648;2022-07-29T02:58:15;15.00;99.90
15386;DHT22;7791;47.246;9.648;2022-07-29T03:00:46;15.10;99.90
15386;DHT22;7791;47.246;9.648;2022-07-29T03:03:16;15.10;99.90
15386;DHT22;7791;47.246;9.648;2022-07-29T03:05:44;15.10;99.90
15386;DHT22;7791;47.246;9.648;2022-07-29T03:08:11;15.20;99.90
15386;DHT22;7791;47.246;9.648;2022-07-29T03:10:39;15.10;99.90
15386;DHT22;7791;47.246;9.648;2022-07-29T03:13:09;15.20;99.90
15386;DHT22;7791;47.246;9.648;2022-07-29T03:15:43;15.30;99.90
15386;DHT22;7791;47.246;9.648;2022-07-29T03:18:10;15.40;99.90
15386;DHT22;7791;47.246;9.648;2022-07-29T03:20:37;15.50;99.90
15386;DHT22;7791;47.246;9.648;2022-07-29T03:23:05;15.60;99.90
15386;DHT22;7791;47.246;9.648;2022-07-29T03:25:31;15.70;99.90
15386;DHT22;7791;47.246;9.648;2022-07-29T03:27:57;15.70;99.90
15386;DHT22;7791;47.246;9.648;2022-07-29T03:30:23;15.70;99.90
15386;DHT22;7791;47.246;9.648;2022-07-29T03:32:50;15.70;99.90
15386;DHT22;7791;47.246;9.648;2022-07-29T03:35:16;15.60;99.90
15386;DHT22;7791;47.246;9.648;2022-07-29T03:37:42;15.50;99.90
15386;DHT22;7791;47.246;9.648;2022-07-29T03:40:13;15.50;99.90
15386;DHT22;7791;47.246;9.648;2022-07-29T03:42:42;15.40;99.90
15386;DHT22;7791;47.246;9.648;2022-07-29T03:45:12;15.30;99.90
15386;DHT22;7791;47.246;9.648;2022-07-29T03:47:44;15.30;99.90
15386;DHT22;7791;47.246;9.648;2022-07-29T03:50:12;15.40;99.90
15386;DHT22;7791;47.246;9.648;2022-07-29T03:52:40;15.30;99.90
15386;DHT22;7791;47.246;9.648;2022-07-29T03:55:09;15.10;99.90
15386;DHT22;7791;47.246;9.648;2022-07-29T03:57:36;15.00;99.90
15386;DHT22;7791;47.246;9.648;2022-07-29T04:00:04;15.00;99.90
15386;DHT22;7791;47.246;9.648;2022-07-29T04:02:31;15.00;99.90
15386;DHT22;7791;47.246;9.648;2022-07-29T04:04:57;15.10;99.90
15386;DHT22;7791;47.246;9.648;2022-07-29T04:07:23;15.10;99.90
15386;DHT22;7791;47.246;9.648;2022-07-29T04:09:49;15.10;99.90
15386;DHT22;7791;47.246;9.648;2022-07-29T04:12:17;15.20;99.90
15386;DHT22;7791;47.246;9.648;2022-07-29T04:14:43;15.20;99.90
15386;DHT22;7791;47.246;9.648;2022-07-29T04:17:10;15.20;99.90
15386;DHT22;7791;47.246;9.648;2022-07-29T04:19:36;15.20;99.90
15386;DHT22;7791;47.246;9.648;2022-07-29T04:22:02;15.30;99.90
15386;DHT22;7791;47.246;9.648;2022-07-29T04:24:29;15.30;99.90
15386;DHT22;7791;47.246;9.648;2022-07-29T04:26:55;15.30;99.90
15386;DHT22;7791;47.246;9.648;2022-07-29T04:29:22;15.40;99.90
15386;DHT22;7791;47.246;9.648;2022-07-29T04:32:07;15.40;99.90
15386;DHT22;7791;47.246;9.648;2022-07-29T04:34:34;15.40;99.90
15386;DHT22;7791;47.246;9.648;2022-07-29T04:37:00;15.40;99.90
15386;DHT22;7791;47.246;9.648;2022-07-29T04:39:27;15.50;99.90
15386;DHT22;7791;47.246;9.648;2022-07-29T04:41:54;15.50;99.90
15386;DHT22;7791;47.246;9.648;2022-07-29T04:44:21;15.50;99.90
15386;DHT22;7791;47.246;9.648;2022-07-29T04:46:48;15.70;99.90
15386;DHT22;7791;47.246;9.648;2022-07-29T04:49:14;15.80;99.90
15386;DHT22;7791;47.246;9.648;2022-07-29T04:51:39;16.10;99.90
15386;DHT22;7791;47.246;9.648;2022-07-29T04:54:05;16.40;99.90
15386;DHT22;7791;47.246;9.648;2022-07-29T04:56:31;16.50;99.90
15386;DHT22;7791;47.246;9.648;2022-07-29T04:58:57;16.30;99.90
15386;DHT22;7791;47.246;9.648;2022-07-29T05:01:43;16.30;99.90
15386;DHT22;7791;47.246;9.648;2022-07-29T05:04:08;16.30;99.90
15386;DHT22;7791;47.246;9.648;2022-07-29T05:06:35;16.50;99.90
15386;DHT22;7791;47.246;9.648;2022-07-29T05:09:00;16.70;99.90
15386;DHT22;7791;47.246;9.648;2022-07-29T05:11:26;16.90;99.90
15386;DHT22;7791;47.246;9.648;2022-07-29T05:13:53;17.10;99.90
15386;DHT22;7791;47.246;9.648;2022-07-29T05:16:19;17.30;99.90
15386;DHT22;7791;47.246;9.648;2022-07-29T05:18:46;17.40;99.90
15386;DHT22;7791;47.246;9.648;2022-07-29T05:21:11;17.50;99.90
15386;DHT22;7791;47.246;9.648;2022-07-29T05:23:38;17.60;99.90
15386;DHT22;7791;47.246;9.648;2022-07-29T05:26:04;17.60;99.90
15386;DHT22;7791;47.246;9.648;2022-07-29T05:28:33;17.60;99.90
15386;DHT22;7791;47.246;9.648;2022-07-29T05:30:58;17.60;99.90
15386;DHT22;7791;47.246;9.648;2022-07-29T05:33:27;17.70;99.90
15386;DHT22;7791;47.246;9.648;2022-07-29T05:35:54;17.70;99.90
15386;DHT22;7791;47.246;9.648;2022-07-29T05:38:21;17.70;99.90
15386;DHT22;7791;47.246;9.648;2022-07-29T05:40:47;17.90;99.90
15386;DHT22;7791;47.246;9.648;2022-07-29T05:43:13;18.00;99.90
15386;DHT22;7791;47.246;9.648;2022-07-29T05:45:40;18.10;99.90
15386;DHT22;7791;47.246;9.648;2022-07-29T05:48:24;18.20;99.90
15386;DHT22;7791;47.246;9.648;2022-07-29T05:50:50;18.30;99.90
15386;DHT22;7791;47.246;9.648;2022-07-29T05:53:17;18.20;99.90
15386;DHT22;7791;47.246;9.648;2022-07-29T05:55:43;18.10;99.90
15386;DHT22;7791;47.246;9.648;2022-07-29T05:58:10;18.20;99.90
15386;DHT22;7791;47.246;9.648;2022-07-29T06:00:36;18.40;99.90
15386;DHT22;7791;47.246;9.648;2022-07-29T06:03:01;18.60;99.90
15386;DHT22;7791;47.246;9.648;2022-07-29T06:05:27;18.70;99.90
15386;DHT22;7791;47.246;9.648;2022-07-29T06:07:53;18.80;99.90
15386;DHT22;7791;47.246;9.648;2022-07-29T06:10:21;18.80;99.90
15386;DHT22;7791;47.246;9.648;2022-07-29T06:12:47;18.80;99.90
15386;DHT22;7791;47.246;9.648;2022-07-29T06:15:13;18.60;99.90
15386;DHT22;7791;47.246;9.648;2022-07-29T06:17:39;18.50;99.90
15386;DHT22;7791;47.246;9.648;2022-07-29T06:20:05;18.60;99.90
15386;DHT22;7791;47.246;9.648;2022-07-29T06:22:31;18.40;99.90
15386;DHT22;7791;47.246;9.648;2022-07-29T06:24:57;18.30;99.90
15386;DHT22;7791;47.246;9.648;2022-07-29T06:27:25;18.40;99.90
15386;DHT22;7791;47.246;9.648;2022-07-29T06:29:51;18.40;99.90
15386;DHT22;7791;47.246;9.648;2022-07-29T06:32:17;18.40;99.90
15386;DHT22;7791;47.246;9.648;2022-07-29T06:34:44;18.20;99.90
15386;DHT22;7791;47.246;9.648;2022-07-29T06:37:10;18.20;99.90
15386;DHT22;7791;47.246;9.648;2022-07-29T06:39:37;18.30;99.90
15386;DHT22;7791;47.246;9.648;2022-07-29T06:42:04;18.30;99.90
15386;DHT22;7791;47.246;9.648;2022-07-29T06:44:31;18.20;99.90
15386;DHT22;7791;47.246;9.648;2022-07-29T06:46:58;18.20;99.90
15386;DHT22;7791;47.246;9.648;2022-07-29T06:49:24;18.20;99.90
15386;DHT22;7791;47.246;9.648;2022-07-29T06:51:49;18.30;99.90
15386;DHT22;7791;47.246;9.648;2022-07-29T06:54:16;18.50;99.90
15386;DHT22;7791;47.246;9.648;2022-07-29T06:56:41;18.50;99.90
15386;DHT22;7791;47.246;9.648;2022-07-29T06:59:09;18.60;99.90
15386;DHT22;7791;47.246;9.648;2022-07-29T07:01:37;18.70;99.90
15386;DHT22;7791;47.246;9.648;2022-07-29T07:07:06;19.00;99.90
15386;DHT22;7791;47.246;9.648;2022-07-29T07:09:33;19.20;99.90
15386;DHT22;7791;47.246;9.648;2022-07-29T07:11:59;19.40;99.90
15386;DHT22;7791;47.246;9.648;2022-07-29T07:14:25;19.50;99.90
15386;DHT22;7791;47.246;9.648;2022-07-29T07:16:52;19.60;99.90
15386;DHT22;7791;47.246;9.648;2022-07-29T07:19:18;19.80;99.90
15386;DHT22;7791;47.246;9.648;2022-07-29T07:21:46;20.10;99.90
15386;DHT22;7791;47.246;9.648;2022-07-29T07:24:14;20.30;99.90
15386;DHT22;7791;47.246;9.648;2022-07-29T07:26:43;20.60;99.90
15386;DHT22;7791;47.246;9.648;2022-07-29T07:29:08;21.10;99.90
15386;DHT22;7791;47.246;9.648;2022-07-29T07:31:35;22.00;99.90
15386;DHT22;7791;47.246;9.648;2022-07-29T07:34:15;23.70;99.90
15386;DHT22;7791;47.246;9.648;2022-07-29T07:36:41;24.90;99.90
15386;DHT22;7791;47.246;9.648;2022-07-29T07:39:07;24.80;99.90
15386;DHT22;7791;47.246;9.648;2022-07-29T07:41:36;24.40;99.90
15386;DHT22;7791;47.246;9.648;2022-07-29T07:44:02;24.00;99.90
15386;DHT22;7791;47.246;9.648;2022-07-29T07:46:28;23.50;99.90
15386;DHT22;7791;47.246;9.648;2022-07-29T07:49:00;23.30;99.90
15386;DHT22;7791;47.246;9.648;2022-07-29T07:51:29;23.10;99.90
15386;DHT22;7791;47.246;9.648;2022-07-29T07:53:56;22.90;99.90
15386;DHT22;7791;47.246;9.648;2022-07-29T07:56:22;22.50;99.90
15386;DHT22;7791;47.246;9.648;2022-07-29T07:58:48;22.40;99.90
15386;DHT22;7791;47.246;9.648;2022-07-29T08:01:14;22.20;99.90
15386;DHT22;7791;47.246;9.648;2022-07-29T08:03:42;21.90;99.90
15386;DHT22;7791;47.246;9.648;2022-07-29T08:06:08;21.60;99.90
15386;DHT22;7791;47.246;9.648;2022-07-29T08:08:36;21.30;99.90
15386;DHT22;7791;47.246;9.648;2022-07-29T08:11:03;20.90;99.90
15386;DHT22;7791;47.246;9.648;2022-07-29T08:13:30;20.80;99.90
15386;DHT22;7791;47.246;9.648;2022-07-29T08:15:58;20.50;99.90
15386;DHT22;7791;47.246;9.648;2022-07-29T08:18:25;20.10;99.90
15386;DHT22;7791;47.246;9.648;2022-07-29T08:24:23;19.60;99.90
15386;DHT22;7791;47.246;9.648;2022-07-29T08:26:49;19.20;99.90
15386;DHT22;7791;47.246;9.648;2022-07-29T08:29:15;19.10;99.90
15386;DHT22;7791;47.246;9.648;2022-07-29T08:31:41;18.90;99.90
15386;DHT22;7791;47.246;9.648;2022-07-29T08:34:08;18.70;99.90
15386;DHT22;7791;47.246;9.648;2022-07-29T08:42:56;19.60;99.90
15386;DHT22;7791;47.246;9.648;2022-07-29T08:45:23;20.00;99.90
15386;DHT22;7791;47.246;9.648;2022-07-29T08:47:50;20.30;99.90
15386;DHT22;7791;47.246;9.648;2022-07-29T08:50:16;20.50;99.90
15386;DHT22;7791;47.246;9.648;2022-07-29T08:52:42;20.80;99.90
15386;DHT22;7791;47.246;9.648;2022-07-29T08:55:09;21.20;99.90
15386;DHT22;7791;47.246;9.648;2022-07-29T08:57:39;21.30;99.90
15386;DHT22;7791;47.246;9.648;2022-07-29T09:00:09;21.40;99.90
15386;DHT22;7791;47.246;9.648;2022-07-29T09:02:40;21.40;99.90
15386;DHT22;7791;47.246;9.648;2022-07-29T09:05:09;21.50;99.90
15386;DHT22;7791;47.246;9.648;2022-07-29T09:07:35;21.70;99.90
15386;DHT22;7791;47.246;9.648;2022-07-29T09:10:04;21.60;99.90
15386;DHT22;7791;47.246;9.648;2022-07-29T09:12:30;21.70;99.90
15386;DHT22;7791;47.246;9.648;2022-07-29T09:17:48;21.80;99.90
15386;DHT22;7791;47.246;9.648;2022-07-29T09:20:19;22.10;99.90
15386;DHT22;7791;47.246;9.648;2022-07-29T09:22:49;22.20;99.90
15386;DHT22;7791;47.246;9.648;2022-07-29T09:25:32;22.40;99.90
15386;DHT22;7791;47.246;9.648;2022-07-29T09:28:19;22.70;99.90
15386;DHT22;7791;47.246;9.648;2022-07-29T09:31:08;23.20;99.90
15386;DHT22;7791;47.246;9.648;2022-07-29T09:33:59;23.50;99.90
15386;DHT22;7791;47.246;9.648;2022-07-29T09:36:28;23.90;99.90
15386;DHT22;7791;47.246;9.648;2022-07-29T09:38:57;23.90;99.90
15386;DHT22;7791;47.246;9.648;2022-07-29T09:41:23;23.70;99.90
15386;DHT22;7791;47.246;9.648;2022-07-29T09:43:54;24.10;99.90
15386;DHT22;7791;47.246;9.648;2022-07-29T09:46:20;24.30;99.90
15386;DHT22;7791;47.246;9.648;2022-07-29T09:49:07;25.10;99.90
15386;DHT22;7791;47.246;9.648;2022-07-29T09:52:04;26.70;99.90
15386;DHT22;7791;47.246;9.648;2022-07-29T09:54:33;27.90;99.90
15386;DHT22;7791;47.246;9.648;2022-07-29T09:57:00;28.90;99.90
15386;DHT22;7791;47.246;9.648;2022-07-29T09:59:31;30.40;99.90
15386;DHT22;7791;47.246;9.648;2022-07-29T10:01:58;31.40;99.90
15386;DHT22;7791;47.246;9.648;2022-07-29T10:04:47;30.50;98.60
15386;DHT22;7791;47.246;9.648;2022-07-29T10:44:21;33.70;93.50
15386;DHT22;7791;47.246;9.648;2022-07-29T10:49:24;32.40;91.70
15386;DHT22;7791;47.246;9.648;2022-07-29T10:57:11;30.30;94.30
15386;DHT22;7791;47.246;9.648;2022-07-29T10:59:40;30.10;92.40
15386;DHT22;7791;47.246;9.648;2022-07-29T11:05:06;30.30;93.20
15386;DHT22;7791;47.246;9.648;2022-07-29T11:10:36;30.20;94.00
15386;DHT22;7791;47.246;9.648;2022-07-29T11:13:02;30.60;92.70
15386;DHT22;7791;47.246;9.648;2022-07-29T11:15:52;30.00;94.20
15386;DHT22;7791;47.246;9.648;2022-07-29T11:18:18;30.00;94.40
15386;DHT22;7791;47.246;9.648;2022-07-29T11:20:45;30.50;94.10
15386;DHT22;7791;47.246;9.648;2022-07-29T11:23:19;31.30;93.30
15386;DHT22;7791;47.246;9.648;2022-07-29T11:28:25;30.30;93.40
15386;DHT22;7791;47.246;9.648;2022-07-29T11:41:25;29.60;95.50
15386;DHT22;7791;47.246;9.648;2022-07-29T11:43:53;29.90;96.50
15386;DHT22;7791;47.246;9.648;2022-07-29T11:46:46;29.80;95.10
15386;DHT22;7791;47.246;9.648;2022-07-29T11:49:12;29.80;95.00
15386;DHT22;7791;47.246;9.648;2022-07-29T11:51:38;29.90;95.80
15386;DHT22;7791;47.246;9.648;2022-07-29T11:54:11;30.10;93.40
15386;DHT22;7791;47.246;9.648;2022-07-29T11:56:42;30.60;92.00
15386;DHT22;7791;47.246;9.648;2022-07-29T11:59:12;31.80;93.20
15386;DHT22;7791;47.246;9.648;2022-07-29T12:01:52;31.80;87.00
15386;DHT22;7791;47.246;9.648;2022-07-29T12:04:18;31.00;81.40
15386;DHT22;7791;47.246;9.648;2022-07-29T12:06:49;30.30;85.30
15386;DHT22;7791;47.246;9.648;2022-07-29T12:09:22;30.30;89.80
15386;DHT22;7791;47.246;9.648;2022-07-29T12:11:57;31.00;87.10
15386;DHT22;7791;47.246;9.648;2022-07-29T12:14:27;30.60;86.40
15386;DHT22;7791;47.246;9.648;2022-07-29T12:16:53;30.60;85.30
15386;DHT22;7791;47.246;9.648;2022-07-29T12:19:18;30.40;89.00
15386;DHT22;7791;47.246;9.648;2022-07-29T12:21:50;30.40;88.80
15386;DHT22;7791;47.246;9.648;2022-07-29T12:24:16;30.70;90.00
15386;DHT22;7791;47.246;9.648;2022-07-29T12:26:51;30.70;88.40
15386;DHT22;7791;47.246;9.648;2022-07-29T12:29:18;30.90;90.40
15386;DHT22;7791;47.246;9.648;2022-07-29T12:31:45;30.40;89.10
15386;DHT22;7791;47.246;9.648;2022-07-29T12:34:12;30.70;88.00
15386;DHT22;7791;47.246;9.648;2022-07-29T12:36:38;30.50;87.90
15386;DHT22;7791;47.246;9.648;2022-07-29T12:39:28;30.60;87.30
15386;DHT22;7791;47.246;9.648;2022-07-29T12:41:56;30.50;89.80
15386;DHT22;7791;47.246;9.648;2022-07-29T12:44:22;30.30;88.70
15386;DHT22;7791;47.246;9.648;2022-07-29T12:47:02;29.60;90.40
15386;DHT22;7791;47.246;9.648;2022-07-29T12:49:28;29.40;91.30
15386;DHT22;7791;47.246;9.648;2022-07-29T12:51:53;29.40;91.30
15386;DHT22;7791;47.246;9.648;2022-07-29T12:54:20;29.40;92.10
15386;DHT22;7791;47.246;9.648;2022-07-29T12:56:45;29.10;92.20
15386;DHT22;7791;47.246;9.648;2022-07-29T12:59:15;28.70;91.40
15386;DHT22;7791;47.246;9.648;2022-07-29T13:01:41;28.20;92.20
15386;DHT22;7791;47.246;9.648;2022-07-29T13:04:07;27.90;92.90
15386;DHT22;7791;47.246;9.648;2022-07-29T13:06:36;27.80;93.40
15386;DHT22;7791;47.246;9.648;2022-07-29T13:09:10;27.90;93.40
15386;DHT22;7791;47.246;9.648;2022-07-29T13:11:44;27.70;93.90
15386;DHT22;7791;47.246;9.648;2022-07-29T13:14:14;27.20;94.40
15386;DHT22;7791;47.246;9.648;2022-07-29T13:17:04;27.00;95.30
15386;DHT22;7791;47.246;9.648;2022-07-29T13:19:35;27.10;94.80
15386;DHT22;7791;47.246;9.648;2022-07-29T13:22:02;26.80;95.50
15386;DHT22;7791;47.246;9.648;2022-07-29T13:24:28;26.50;95.60
15386;DHT22;7791;47.246;9.648;2022-07-29T13:27:31;26.00;96.40
15386;DHT22;7791;47.246;9.648;2022-07-29T13:30:00;25.80;96.60
15386;DHT22;7791;47.246;9.648;2022-07-29T13:32:29;26.00;97.30
15386;DHT22;7791;47.246;9.648;2022-07-29T13:34:55;25.70;97.80
15386;DHT22;7791;47.246;9.648;2022-07-29T13:37:21;25.50;98.40
15386;DHT22;7791;47.246;9.648;2022-07-29T13:39:51;25.60;98.60
15386;DHT22;7791;47.246;9.648;2022-07-29T13:42:17;25.40;98.30
15386;DHT22;7791;47.246;9.648;2022-07-29T13:44:44;25.40;98.90
15386;DHT22;7791;47.246;9.648;2022-07-29T13:47:14;25.10;98.40
15386;DHT22;7791;47.246;9.648;2022-07-29T13:49:41;24.80;97.50
15386;DHT22;7791;47.246;9.648;2022-07-29T13:52:08;24.70;98.50
15386;DHT22;7791;47.246;9.648;2022-07-29T13:54:34;24.50;99.00
15386;DHT22;7791;47.246;9.648;2022-07-29T13:57:04;24.60;98.50
15386;DHT22;7791;47.246;9.648;2022-07-29T13:59:30;24.60;99.90
15386;DHT22;7791;47.246;9.648;2022-07-29T14:01:57;24.20;99.90
15386;DHT22;7791;47.246;9.648;2022-07-29T14:04:43;23.70;99.90
15386;DHT22;7791;47.246;9.648;2022-07-29T14:07:11;23.10;99.90
15386;DHT22;7791;47.246;9.648;2022-07-29T14:09:38;22.50;99.90
15386;DHT22;7791;47.246;9.648;2022-07-29T14:12:27;22.10;99.90
15386;DHT22;7791;47.246;9.648;2022-07-29T14:14:56;20.90;99.90
15386;DHT22;7791;47.246;9.648;2022-07-29T14:17:22;20.20;99.90
15386;DHT22;7791;47.246;9.648;2022-07-29T14:19:52;19.80;99.90
15386;DHT22;7791;47.246;9.648;2022-07-29T14:22:25;19.70;99.90
15386;DHT22;7791;47.246;9.648;2022-07-29T14:24:51;19.80;99.90
15386;DHT22;7791;47.246;9.648;2022-07-29T14:27:21;20.00;99.90
15386;DHT22;7791;47.246;9.648;2022-07-29T14:29:48;20.10;99.90
15386;DHT22;7791;47.246;9.648;2022-07-29T14:32:14;20.20;99.90
15386;DHT22;7791;47.246;9.648;2022-07-29T14:34:40;20.10;99.90
15386;DHT22;7791;47.246;9.648;2022-07-29T14:37:10;20.00;99.90
15386;DHT22;7791;47.246;9.648;2022-07-29T14:39:35;20.10;99.90
15386;DHT22;7791;47.246;9.648;2022-07-29T14:42:06;20.20;99.90
15386;DHT22;7791;47.246;9.648;2022-07-29T14:44:32;20.20;99.90
15386;DHT22;7791;47.246;9.648;2022-07-29T14:46:58;20.20;99.90
15386;DHT22;7791;47.246;9.648;2022-07-29T14:49:24;20.00;99.90
15386;DHT22;7791;47.246;9.648;2022-07-29T14:51:50;19.80;99.90
15386;DHT22;7791;47.246;9.648;2022-07-29T14:54:17;19.70;99.90
15386;DHT22;7791;47.246;9.648;2022-07-29T14:56:45;19.70;99.90
15386;DHT22;7791;47.246;9.648;2022-07-29T14:59:11;19.70;99.90
15386;DHT22;7791;47.246;9.648;2022-07-29T15:01:37;19.60;99.90
15386;DHT22;7791;47.246;9.648;2022-07-29T15:04:03;19.40;99.90
15386;DHT22;7791;47.246;9.648;2022-07-29T15:06:30;19.50;99.90
15386;DHT22;7791;47.246;9.648;2022-07-29T15:08:55;19.50;99.90
15386;DHT22;7791;47.246;9.648;2022-07-29T15:11:22;19.60;99.90
15386;DHT22;7791;47.246;9.648;2022-07-29T15:13:48;19.60;99.90
15386;DHT22;7791;47.246;9.648;2022-07-29T15:16:15;19.60;99.90
15386;DHT22;7791;47.246;9.648;2022-07-29T15:18:45;19.50;99.90
15386;DHT22;7791;47.246;9.648;2022-07-29T15:21:22;19.50;99.90
15386;DHT22;7791;47.246;9.648;2022-07-29T15:23:48;19.60;99.90
15386;DHT22;7791;47.246;9.648;2022-07-29T15:26:15;19.70;99.90
15386;DHT22;7791;47.246;9.648;2022-07-29T15:28:43;19.80;99.90
15386;DHT22;7791;47.246;9.648;2022-07-29T15:31:09;19.60;99.90
15386;DHT22;7791;47.246;9.648;2022-07-29T15:33:35;19.60;99.90
15386;DHT22;7791;47.246;9.648;2022-07-29T15:36:01;19.60;99.90
15386;DHT22;7791;47.246;9.648;2022-07-29T15:38:27;19.50;99.90
15386;DHT22;7791;47.246;9.648;2022-07-29T15:40:54;19.60;99.90
15386;DHT22;7791;47.246;9.648;2022-07-29T15:43:25;19.70;99.90
15386;DHT22;7791;47.246;9.648;2022-07-29T15:45:53;19.90;99.90
15386;DHT22;7791;47.246;9.648;2022-07-29T15:48:19;20.00;99.90
15386;DHT22;7791;47.246;9.648;2022-07-29T15:50:45;20.20;99.90
15386;DHT22;7791;47.246;9.648;2022-07-29T15:53:14;20.20;99.90
15386;DHT22;7791;47.246;9.648;2022-07-29T15:55:41;20.30;99.90
15386;DHT22;7791;47.246;9.648;2022-07-29T15:58:24;20.40;99.90
15386;DHT22;7791;47.246;9.648;2022-07-29T16:00:57;20.50;99.90
15386;DHT22;7791;47.246;9.648;2022-07-29T16:03:27;20.50;99.90
15386;DHT22;7791;47.246;9.648;2022-07-29T16:05:53;20.20;99.90
15386;DHT22;7791;47.246;9.648;2022-07-29T16:08:24;20.30;99.90
15386;DHT22;7791;47.246;9.648;2022-07-29T16:10:51;20.40;99.90
15386;DHT22;7791;47.246;9.648;2022-07-29T16:13:20;20.40;99.90
15386;DHT22;7791;47.246;9.648;2022-07-29T16:19:11;20.40;99.90
15386;DHT22;7791;47.246;9.648;2022-07-29T16:21:38;20.10;99.90
15386;DHT22;7791;47.246;9.648;2022-07-29T16:24:05;20.00;99.90
15386;DHT22;7791;47.246;9.648;2022-07-29T16:26:31;20.10;99.90
15386;DHT22;7791;47.246;9.648;2022-07-29T16:32:15;20.30;99.90
15386;DHT22;7791;47.246;9.648;2022-07-29T16:34:43;20.40;99.90
15386;DHT22;7791;47.246;9.648;2022-07-29T16:37:10;20.30;99.90
15386;DHT22;7791;47.246;9.648;2022-07-29T16:39:36;20.40;99.90
15386;DHT22;7791;47.246;9.648;2022-07-29T16:42:02;20.40;99.90
15386;DHT22;7791;47.246;9.648;2022-07-29T16:44:46;20.40;99.90
15386;DHT22;7791;47.246;9.648;2022-07-29T16:47:12;20.40;99.90
15386;DHT22;7791;47.246;9.648;2022-07-29T16:49:39;20.40;99.90
15386;DHT22;7791;47.246;9.648;2022-07-29T16:52:11;20.50;99.90
15386;DHT22;7791;47.246;9.648;2022-07-29T16:54:37;20.40;99.90
15386;DHT22;7791;47.246;9.648;2022-07-29T16:57:03;20.50;99.90
15386;DHT22;7791;47.246;9.648;2022-07-29T16:59:29;20.50;99.90
15386;DHT22;7791;47.246;9.648;2022-07-29T17:02:22;20.40;99.90
15386;DHT22;7791;47.246;9.648;2022-07-29T17:04:49;20.40;99.90
15386;DHT22;7791;47.246;9.648;2022-07-29T17:07:16;20.30;99.90
15386;DHT22;7791;47.246;9.648;2022-07-29T17:09:42;20.40;99.90
15386;DHT22;7791;47.246;9.648;2022-07-29T17:12:09;20.30;99.90
15386;DHT22;7791;47.246;9.648;2022-07-29T17:14:37;20.10;99.90
15386;DHT22;7791;47.246;9.648;2022-07-29T17:17:16;19.90;99.90
15386;DHT22;7791;47.246;9.648;2022-07-29T17:19:42;19.90;99.90
15386;DHT22;7791;47.246;9.648;2022-07-29T17:22:08;19.80;99.90
15386;DHT22;7791;47.246;9.648;2022-07-29T17:24:35;19.80;99.90
15386;DHT22;7791;47.246;9.648;2022-07-29T17:27:01;19.60;99.90
15386;DHT22;7791;47.246;9.648;2022-07-29T17:29:27;19.50;99.90